createdAt,value
2023-02-15T05:35:57.329Z,0.54
2023-02-15T05:40:59.843Z,0.44
2023-02-15T05:46:02.574Z,0.52
2023-02-15T05:51:07.214Z,0.46
2023-02-15T05:56:10.636Z,0.43
2023-02-15T06:01:22.159Z,0.57
2023-02-15T06:06:23.855Z,0.63
2023-02-15T06:11:25.544Z,0.54
2023-02-15T06:16:27.182Z,0.65
2023-02-15T06:21:29.351Z,0.46
2023-02-15T06:26:30.974Z,0.63
2023-02-15T06:31:32.798Z,0.69
2023-02-15T06:36:34.635Z,0.50
2023-02-15T06:41:36.552Z,0.53
2023-02-15T06:46:38.293Z,0.75
2023-02-15T06:51:39.967Z,0.81
2023-02-15T06:56:41.576Z,0.71
2023-02-15T07:01:43.289Z,0.60
2023-02-15T07:06:44.987Z,0.78
2023-02-15T07:12:05.053Z,0.68
2023-02-15T07:17:11.764Z,0.74
2023-02-15T07:22:20.251Z,0.80
2023-02-15T07:27:22.432Z,0.66
2023-02-15T07:32:24.137Z,0.91
2023-02-15T07:37:26.971Z,0.93
2023-02-15T07:42:28.637Z,0.74
2023-02-15T07:47:30.693Z,0.65
2023-02-15T07:52:32.353Z,0.67
2023-02-15T07:57:33.989Z,0.79
2023-02-15T08:02:38.066Z,0.79
2023-02-15T08:07:39.731Z,0.67
2023-02-15T08:12:41.343Z,1.00
2023-02-15T08:17:42.986Z,0.93
2023-02-15T08:22:44.604Z,0.89
2023-02-15T08:27:46.211Z,0.87
2023-02-15T08:32:48.065Z,1.02
2023-02-15T08:37:49.890Z,1.13
2023-02-15T08:42:51.806Z,1.15
2023-02-15T08:47:54.047Z,1.07
2023-02-15T08:52:57.035Z,0.80
2023-02-15T08:57:58.841Z,1.04
2023-02-15T09:03:01.212Z,0.78
2023-02-15T09:08:02.964Z,0.89
2023-02-15T09:13:04.681Z,0.99
2023-02-15T09:18:07.056Z,0.81
2023-02-15T09:23:16.227Z,0.80
2023-02-15T09:28:23.637Z,0.90
2023-02-15T09:33:27.034Z,1.17
2023-02-15T09:38:28.899Z,1.17
2023-02-15T09:44:19.339Z,0.97
2023-02-15T09:49:33.238Z,1.37
2023-02-15T09:54:46.366Z,1.35
2023-02-15T10:00:18.895Z,1.40
2023-02-15T10:05:20.931Z,1.18
2023-02-15T10:10:58.200Z,1.28
2023-02-15T10:16:09.056Z,1.47
2023-02-15T10:21:28.576Z,1.49
2023-02-15T10:26:43.275Z,1.47
2023-02-15T10:31:55.369Z,1.43
2023-02-15T10:37:05.508Z,1.41
2023-02-15T10:42:48.854Z,1.49
2023-02-15T10:48:17.924Z,1.28
2023-02-15T10:53:22.306Z,1.48
2023-02-15T10:58:26.896Z,1.32
2023-02-15T11:03:55.667Z,1.37
2023-02-15T11:09:19.340Z,1.48
2023-02-15T11:14:33.012Z,1.38
2023-02-15T11:19:42.857Z,1.55
2023-02-15T11:24:46.807Z,1.59
2023-02-15T11:29:58.251Z,1.59
2023-02-15T11:35:24.565Z,1.53
2023-02-15T11:40:28.513Z,1.52
2023-02-15T11:45:35.598Z,1.68
2023-02-15T11:50:37.407Z,1.56
2023-02-15T11:55:39.128Z,1.59
2023-02-15T12:00:44.706Z,1.55
2023-02-15T12:05:50.843Z,1.45
2023-02-15T12:10:57.307Z,1.48
2023-02-15T12:16:06.291Z,1.58
2023-02-15T12:21:25.577Z,1.57
2023-02-15T12:26:30.952Z,1.44
2023-02-15T12:31:40.304Z,1.37
2023-02-15T12:36:47.441Z,1.68
2023-02-15T12:41:54.917Z,1.59
2023-02-15T12:47:02.393Z,1.77
2023-02-15T12:52:09.916Z,1.90
2023-02-15T12:57:36.770Z,1.90
2023-02-15T13:02:48.350Z,1.50
2023-02-15T13:07:54.931Z,1.46
2023-02-15T13:12:58.885Z,1.65
2023-02-15T13:18:02.772Z,1.81
2023-02-15T13:23:28.455Z,1.97
2023-02-15T13:28:44.416Z,1.81
2023-02-15T13:33:53.917Z,1.84
2023-02-15T13:39:34.082Z,1.74
2023-02-15T13:45:10.365Z,1.75
2023-02-15T13:50:49.065Z,1.70
2023-02-15T13:56:08.794Z,2.00
2023-02-15T14:01:19.165Z,1.79
2023-02-15T14:06:27.931Z,1.87
2023-02-15T14:11:57.208Z,1.98
2023-02-15T14:17:18.607Z,1.62
2023-02-15T14:22:36.293Z,1.87
2023-02-15T14:27:56.050Z,1.87
2023-02-15T14:33:10.084Z,1.86
2023-02-15T14:38:38.143Z,1.83
2023-02-15T14:44:03.480Z,1.66
2023-02-15T14:49:13.984Z,1.72
2023-02-15T14:54:18.392Z,1.79
2023-02-15T14:59:22.342Z,1.62
2023-02-15T15:04:34.299Z,1.79
2023-02-15T15:09:38.804Z,1.85
2023-02-15T15:14:43.855Z,1.67
2023-02-15T15:19:51.954Z,1.81
2023-02-15T15:25:31.642Z,1.65
2023-02-15T15:30:33.224Z,1.65
2023-02-15T15:35:45.712Z,1.74
2023-02-15T15:41:18.068Z,1.52
2023-02-15T15:47:04.020Z,1.59
2023-02-15T15:52:36.430Z,1.60
2023-02-15T15:57:43.892Z,1.59
2023-02-15T16:02:52.876Z,1.52
2023-02-15T16:07:54.611Z,1.53
2023-02-15T16:12:56.753Z,1.48
2023-02-15T16:18:00.837Z,1.37
2023-02-15T16:23:19.664Z,1.35
2023-02-15T16:28:21.734Z,1.26
2023-02-15T16:33:23.417Z,1.32
2023-02-15T16:38:43.493Z,1.15
2023-02-15T16:43:49.144Z,1.09
2023-02-15T16:48:53.281Z,1.09
2023-02-15T16:53:56.763Z,0.99
2023-02-15T16:58:59.922Z,1.11
2023-02-15T17:04:22.902Z,1.20
2023-02-15T17:09:26.611Z,0.95
2023-02-15T17:14:30.437Z,0.98
2023-02-15T17:19:43.041Z,1.13
2023-02-15T17:24:49.714Z,1.23
2023-02-15T17:29:56.416Z,0.88
2023-02-15T17:35:09.309Z,0.76
2023-02-15T17:40:31.145Z,0.82
2023-02-15T17:45:36.606Z,0.78
2023-02-15T17:50:38.981Z,0.58
2023-02-15T17:55:41.443Z,0.88
2023-02-15T18:01:11.446Z,0.74
2023-02-15T18:06:32.484Z,0.64
2023-02-15T18:11:35.120Z,0.71
2023-02-15T18:16:43.433Z,0.58
2023-02-15T18:21:46.447Z,0.69
2023-02-15T18:26:48.778Z,0.74
2023-02-15T18:31:54.780Z,0.59
2023-02-15T18:36:57.941Z,0.67
2023-02-15T18:41:59.693Z,0.55
2023-02-15T18:47:01.296Z,0.73
2023-02-15T18:52:03.043Z,0.40
2023-02-15T18:57:04.710Z,0.67
2023-02-15T19:02:18.230Z,0.59
2023-02-15T19:07:28.090Z,0.57
2023-02-15T19:12:29.844Z,0.60
2023-02-15T19:17:31.443Z,0.53
2023-02-15T19:22:34.910Z,0.60
2023-02-15T19:27:36.766Z,0.32
2023-02-15T19:32:38.511Z,0.56
2023-02-15T19:37:42.650Z,0.61
2023-02-15T19:42:44.453Z,0.50
2023-02-15T19:47:48.255Z,0.40
2023-02-15T19:52:50.570Z,0.61
2023-02-15T19:57:54.181Z,0.61
2023-02-15T20:02:57.927Z,0.55
2023-02-15T20:07:59.721Z,0.01
2023-02-15T20:13:02.605Z,0.33
2023-02-15T20:18:05.265Z,0.24
2023-02-15T20:23:16.127Z,0.11
2023-02-15T20:28:23.652Z,0.40
2023-02-15T20:33:25.274Z,0.16
2023-02-15T20:38:29.863Z,0.21
2023-02-15T20:43:32.097Z,0.17
2023-02-15T20:48:33.886Z,0.21
2023-02-15T20:53:35.538Z,0.19
2023-02-15T20:58:38.596Z,0.19
2023-02-15T21:03:40.268Z,0.13
2023-02-15T21:08:42.557Z,0.02
2023-02-15T21:13:44.648Z,0.06
2023-02-15T21:18:46.270Z,-0.03
2023-02-15T21:23:48.005Z,0.07
2023-02-15T21:28:50.493Z,-0.01
